Terminal Aerodrome Forecast
Issued by NWS

Current Version | Previous Version | Text Only | Print | Product List | Glossary On
Versions: 1 2 3 4 5 6 7 8 9 10 11 12 13 14 15 16 17 18 19 20 21 22 23 24 25 26 27 28
000
FTAK31 PANC 210807 AAB
TAFAEN
TAF AMD
PAEN 210807Z 2108/2206 03005KT P6SM -SHRASN SCT025 OVC035
      TEMPO 2108/2111 -RA BKN011
     FM211800 03008KT P6SM SCT040 BKN070
     FM220100 03013KT P6SM SCT070=

USA.gov is the U.S. government's official web portal to all federal, state and local government web resources and services.